Time;durP1;ratioP1;P1;durP2;ratioP2;P2;SDS_P1;SDS_P2;PMS_P1;PMS_P2;Temp;Humidity;BMP_temperature;BMP_pressure;BME280_temperature;BME280_humidity;BME280_pressure;Samples;Min_cycle;Max_cycle;Signal;HPM_P1;HPM_P2
2023/04/06 00:01:26;;;;;;;14.18;5.82;;;3.70;99.90;;;;;;5070176;28;20040;-83
2023/04/06 00:03:52;;;;;;;11.13;6.03;;;3.70;99.90;;;;;;5073208;28;20384;-82
2023/04/06 00:06:17;;;;;;;8.05;5.63;;;3.70;99.90;;;;;;5083230;28;20047;-82
2023/04/06 00:08:44;;;;;;;12.15;5.63;;;3.70;99.90;;;;;;5081425;28;20033;-83
2023/04/06 00:11:10;;;;;;;12.48;5.30;;;3.70;99.90;;;;;;5082468;28;20028;-83
2023/04/06 00:13:35;;;;;;;7.03;5.47;;;3.60;99.90;;;;;;5083457;28;20443;-82
2023/04/06 00:16:01;;;;;;;10.48;5.97;;;3.70;99.90;;;;;;5082027;28;20035;-82
2023/04/06 00:18:27;;;;;;;10.30;6.55;;;3.70;99.90;;;;;;5071683;28;20024;-82
2023/04/06 00:20:53;;;;;;;12.75;6.60;;;3.70;99.90;;;;;;5082795;28;20050;-82
2023/04/06 00:23:20;;;;;;;7.88;5.50;;;3.70;99.90;;;;;;5072474;28;20024;-84
2023/04/06 00:25:45;;;;;;;11.07;6.72;;;3.70;99.90;;;;;;5073568;28;20330;-83
2023/04/06 00:28:12;;;;;;;13.73;6.85;;;3.70;99.90;;;;;;5077342;28;20500;-83
2023/04/06 00:30:38;;;;;;;14.25;6.45;;;3.70;99.90;;;;;;5071370;28;20244;-82
2023/04/06 00:33:03;;;;;;;16.02;6.30;;;3.70;99.90;;;;;;5063802;28;20035;-83
2023/04/06 00:35:29;;;;;;;15.50;7.05;;;3.70;99.90;;;;;;5080469;28;20362;-83
2023/04/06 00:37:55;;;;;;;11.00;6.22;;;3.70;99.90;;;;;;5078127;28;20074;-83
2023/04/06 00:40:20;;;;;;;8.13;5.78;;;3.70;99.90;;;;;;5078468;28;20044;-83
2023/04/06 00:42:46;;;;;;;11.25;5.60;;;3.70;99.90;;;;;;5072844;28;20556;-83
2023/04/06 00:45:13;;;;;;;10.23;5.43;;;3.70;99.90;;;;;;5077089;28;20602;-84
2023/04/06 00:47:38;;;;;;;13.48;6.32;;;3.70;99.90;;;;;;5075332;28;20032;-83
2023/04/06 00:50:05;;;;;;;10.98;6.13;;;3.70;99.90;;;;;;5078841;28;20499;-85
2023/04/06 00:52:30;;;;;;;14.98;5.32;;;3.60;99.90;;;;;;5068657;28;20125;-83
2023/04/06 00:54:56;;;;;;;6.85;5.18;;;3.60;99.90;;;;;;5061381;28;20021;-82
2023/04/06 00:57:22;;;;;;;12.73;5.68;;;3.60;99.90;;;;;;5063220;28;20032;-83
2023/04/06 00:59:47;;;;;;;10.82;5.93;;;3.60;99.90;;;;;;5067676;28;20029;-83
2023/04/06 01:02:13;;;;;;;11.93;6.07;;;3.60;99.90;;;;;;5068873;28;20059;-83
2023/04/06 01:04:39;;;;;;;10.75;5.65;;;3.60;99.90;;;;;;5059958;28;20029;-83
2023/04/06 01:07:04;;;;;;;12.50;5.60;;;3.60;99.90;;;;;;5059142;28;20023;-82
2023/04/06 01:09:30;;;;;;;7.68;4.82;;;3.60;99.90;;;;;;5060037;28;20017;-82
2023/04/06 01:11:57;;;;;;;12.27;5.72;;;3.60;99.90;;;;;;5067768;28;20024;-83
2023/04/06 01:14:23;;;;;;;6.25;5.22;;;3.60;99.90;;;;;;5063867;28;20033;-82
2023/04/06 01:16:52;;;;;;;10.82;5.53;;;3.60;99.90;;;;;;5060105;28;20040;-84
2023/04/06 01:19:18;;;;;;;7.60;5.47;;;3.50;99.90;;;;;;5058727;28;20048;-82
2023/04/06 01:21:44;;;;;;;8.38;4.40;;;3.50;99.90;;;;;;5068255;28;20048;-82
2023/04/06 01:24:09;;;;;;;9.77;5.18;;;3.50;99.90;;;;;;5067265;28;20032;-83
2023/04/06 01:26:35;;;;;;;11.02;5.50;;;3.40;99.90;;;;;;5063182;28;20469;-82
2023/04/06 01:29:03;;;;;;;10.90;5.90;;;3.40;99.90;;;;;;5064740;28;20032;-83
2023/04/06 01:31:28;;;;;;;8.65;5.25;;;3.40;99.90;;;;;;5065388;28;20542;-83
2023/04/06 01:33:54;;;;;;;8.98;4.95;;;3.40;99.90;;;;;;5064693;28;20064;-82
2023/04/06 01:36:20;;;;;;;11.00;5.07;;;3.40;99.90;;;;;;5061524;28;20083;-82
2023/04/06 01:38:46;;;;;;;6.75;4.90;;;3.40;99.90;;;;;;5058378;28;20036;-83
2023/04/06 01:41:12;;;;;;;10.02;4.70;;;3.50;99.90;;;;;;5057482;28;20103;-84
2023/04/06 01:43:37;;;;;;;9.50;4.93;;;3.40;99.90;;;;;;5064857;28;20031;-83
2023/04/06 01:46:04;;;;;;;7.82;4.88;;;3.40;99.90;;;;;;5065690;28;20043;-83
2023/04/06 01:48:29;;;;;;;13.13;5.20;;;3.40;99.90;;;;;;5067642;28;20020;-82
2023/04/06 01:50:55;;;;;;;7.90;4.85;;;3.40;99.90;;;;;;5065360;28;20382;-81
2023/04/06 01:53:21;;;;;;;11.65;5.53;;;3.40;99.90;;;;;;5061687;28;20033;-82
2023/04/06 01:55:47;;;;;;;13.25;5.05;;;3.40;99.90;;;;;;5063502;28;20529;-82
2023/04/06 01:58:13;;;;;;;7.75;4.63;;;3.50;99.90;;;;;;5067614;28;20025;-82
2023/04/06 02:00:40;;;;;;;12.45;5.03;;;3.50;99.90;;;;;;5067358;28;20041;-82
2023/04/06 02:03:06;;;;;;;10.07;5.05;;;3.50;99.90;;;;;;5055879;28;20024;-82
2023/04/06 02:05:39;;;;;;;12.48;5.28;;;3.40;99.90;;;;;;5066590;28;20058;-82
2023/04/06 02:08:05;;;;;;;9.60;4.97;;;3.40;99.90;;;;;;5055997;28;20476;-82
2023/04/06 02:13:52;;;;;;;7.03;5.15;;;3.40;99.90;;;;;;5059011;28;20539;-82
2023/04/06 02:16:18;;;;;;;8.98;5.10;;;3.40;99.90;;;;;;5059212;28;20028;-82
2023/04/06 02:18:44;;;;;;;8.32;5.65;;;3.40;99.90;;;;;;5065607;28;20084;-83
2023/04/06 02:21:09;;;;;;;8.05;4.65;;;3.30;99.90;;;;;;5063271;28;20082;-82
2023/04/06 02:23:35;;;;;;;7.28;4.72;;;3.30;99.90;;;;;;5058719;28;20066;-82
2023/04/06 02:26:00;;;;;;;11.77;5.40;;;3.30;99.90;;;;;;5053528;28;20036;-83
2023/04/06 02:28:26;;;;;;;13.52;5.95;;;3.30;99.90;;;;;;5064961;28;20108;-83
2023/04/06 02:30:52;;;;;;;7.82;5.72;;;3.30;99.90;;;;;;5055956;28;20520;-83
2023/04/06 02:33:17;;;;;;;19.92;7.88;;;3.30;99.90;;;;;;5057739;28;20939;-82
2023/04/06 02:35:44;;;;;;;13.80;6.90;;;3.30;99.90;;;;;;5066890;28;20119;-83
2023/04/06 02:38:10;;;;;;;12.50;7.25;;;3.30;99.90;;;;;;5065833;28;20115;-85
2023/04/06 02:40:36;;;;;;;9.38;6.78;;;3.30;99.90;;;;;;5066251;28;20466;-83
2023/04/06 02:43:01;;;;;;;15.45;7.43;;;3.30;99.90;;;;;;5066253;28;20437;-82
2023/04/06 02:45:27;;;;;;;8.75;6.07;;;3.30;99.90;;;;;;5058911;28;20032;-84
2023/04/06 02:47:52;;;;;;;12.82;5.72;;;3.30;99.90;;;;;;5057144;28;20028;-84
2023/04/06 02:50:18;;;;;;;12.70;6.60;;;3.30;99.90;;;;;;5060714;28;20438;-83
2023/04/06 02:52:47;;;;;;;8.48;5.70;;;3.30;99.90;;;;;;5055763;28;20024;-84
2023/04/06 02:55:12;;;;;;;8.65;6.13;;;3.30;99.90;;;;;;5063970;28;20036;-83
2023/04/06 02:57:38;;;;;;;8.10;6.20;;;3.30;99.90;;;;;;5064394;28;20035;-83
2023/04/06 03:00:04;;;;;;;10.20;5.57;;;3.30;99.90;;;;;;5062488;28;20487;-83
2023/04/06 03:02:29;;;;;;;10.48;6.32;;;3.30;99.90;;;;;;5058460;28;20024;-83
2023/04/06 03:04:55;;;;;;;9.20;5.65;;;3.30;99.90;;;;;;5064378;28;20036;-83
2023/04/06 03:07:21;;;;;;;8.82;6.10;;;3.30;99.90;;;;;;5057400;28;20081;-83
2023/04/06 03:09:47;;;;;;;10.68;5.90;;;3.20;99.90;;;;;;5056548;28;20017;-84
2023/04/06 03:12:13;;;;;;;15.05;6.78;;;3.20;99.90;;;;;;5066087;28;20282;-83
2023/04/06 03:14:39;;;;;;;10.25;5.97;;;3.30;99.90;;;;;;5066109;28;20078;-82
2023/04/06 03:17:04;;;;;;;12.60;6.75;;;3.30;99.90;;;;;;5061978;28;20028;-84
2023/04/06 03:19:30;;;;;;;15.35;6.78;;;3.40;99.90;;;;;;5065293;28;20096;-84
2023/04/06 03:21:55;;;;;;;14.93;6.30;;;3.30;99.90;;;;;;5064294;28;20055;-83
2023/04/06 03:24:21;;;;;;;10.05;6.18;;;3.30;99.90;;;;;;5062906;28;20618;-83
2023/04/06 03:26:47;;;;;;;8.73;6.10;;;3.40;99.90;;;;;;5055355;28;20393;-83
2023/04/06 03:29:12;;;;;;;9.18;6.35;;;3.40;99.90;;;;;;5053495;28;20477;-83
2023/04/06 03:31:39;;;;;;;13.55;6.30;;;3.30;99.90;;;;;;5059444;28;20033;-83
2023/04/06 03:34:05;;;;;;;8.32;6.20;;;3.30;99.90;;;;;;5052196;28;20041;-83
2023/04/06 03:36:30;;;;;;;16.75;6.65;;;3.30;99.90;;;;;;5061771;28;20577;-83
2023/04/06 03:38:56;;;;;;;10.27;6.03;;;3.30;99.90;;;;;;5063026;28;20051;-84
2023/04/06 03:41:22;;;;;;;11.80;5.82;;;3.40;99.90;;;;;;5062693;28;20078;-83
2023/04/06 03:43:47;;;;;;;10.45;5.60;;;3.40;99.90;;;;;;5047439;28;20282;-82
2023/04/06 03:46:16;;;;;;;13.55;6.10;;;3.30;99.90;;;;;;5063243;28;20171;-84
2023/04/06 03:48:41;;;;;;;8.95;6.00;;;3.30;99.90;;;;;;5063774;28;20039;-82
2023/04/06 03:51:07;;;;;;;11.23;6.25;;;3.30;99.90;;;;;;5056026;28;20116;-83
2023/04/06 03:53:32;;;;;;;9.32;5.95;;;3.30;99.90;;;;;;5066750;28;20017;-82
2023/04/06 03:55:58;;;;;;;11.75;6.35;;;3.30;99.90;;;;;;5055795;28;20076;-83
2023/04/06 03:58:26;;;;;;;15.77;7.95;;;3.30;99.90;;;;;;5060676;28;20077;-84
2023/04/06 04:00:52;;;;;;;12.10;5.80;;;3.20;99.90;;;;;;5055161;28;20052;-84
2023/04/06 04:03:17;;;;;;;10.70;5.55;;;3.20;99.90;;;;;;5055029;28;20024;-83
2023/04/06 04:05:43;;;;;;;10.48;5.88;;;3.20;99.90;;;;;;5065665;28;20020;-83
2023/04/06 04:08:08;;;;;;;7.53;5.03;;;3.20;99.90;;;;;;5053907;28;20029;-83
2023/04/06 04:10:37;;;;;;;7.72;5.25;;;3.10;99.90;;;;;;5054315;28;20119;-84
2023/04/06 04:13:02;;;;;;;13.88;6.25;;;3.10;99.90;;;;;;5054533;28;20037;-84
2023/04/06 04:15:28;;;;;;;12.45;6.15;;;3.00;99.90;;;;;;5062883;28;20437;-84
2023/04/06 04:17:54;;;;;;;12.05;6.80;;;2.90;99.90;;;;;;5060083;28;20029;-84
2023/04/06 04:20:21;;;;;;;9.25;6.20;;;2.80;99.90;;;;;;5057647;28;20052;-84
2023/04/06 04:22:46;;;;;;;9.75;6.47;;;2.70;99.90;;;;;;5063896;28;20024;-83
2023/04/06 04:25:13;;;;;;;11.38;7.68;;;2.60;99.90;;;;;;5051159;28;20039;-84
2023/04/06 04:27:38;;;;;;;14.07;8.07;;;2.50;99.90;;;;;;5055084;28;20029;-84
2023/04/06 04:30:05;;;;;;;11.93;7.18;;;2.40;99.90;;;;;;5069243;28;20180;-83
2023/04/06 04:32:31;;;;;;;13.13;7.15;;;2.30;99.90;;;;;;5068902;28;20095;-83
2023/04/06 04:34:56;;;;;;;12.60;7.00;;;2.20;99.90;;;;;;5066596;28;20103;-82
2023/04/06 04:37:22;;;;;;;9.93;6.85;;;2.20;99.90;;;;;;5061364;28;20385;-84
2023/04/06 04:39:47;;;;;;;9.40;6.07;;;2.30;99.90;;;;;;5060790;28;20039;-84
2023/04/06 04:42:13;;;;;;;9.77;5.90;;;2.30;99.90;;;;;;5064916;28;20067;-83
2023/04/06 04:44:39;;;;;;;11.00;6.88;;;2.40;99.90;;;;;;5059472;28;20032;-83
2023/04/06 04:47:05;;;;;;;10.32;6.43;;;2.40;99.90;;;;;;5059163;28;20054;-84
2023/04/06 04:49:30;;;;;;;11.23;6.72;;;2.40;99.90;;;;;;5059987;28;20197;-83
2023/04/06 04:51:56;;;;;;;11.55;7.15;;;2.30;99.90;;;;;;5057890;28;20116;-84
2023/04/06 04:54:21;;;;;;;9.70;6.60;;;2.40;99.90;;;;;;5064791;28;20354;-84
2023/04/06 04:56:47;;;;;;;14.75;7.90;;;2.30;99.90;;;;;;5063064;28;20036;-83
2023/04/06 04:59:13;;;;;;;11.27;6.80;;;2.20;99.90;;;;;;5066066;28;20047;-83
2023/04/06 05:01:38;;;;;;;13.18;8.35;;;2.20;99.90;;;;;;5065652;28;20044;-83
2023/04/06 05:04:04;;;;;;;10.80;7.38;;;2.10;99.90;;;;;;5065203;28;20397;-84
2023/04/06 05:06:30;;;;;;;11.15;8.00;;;2.00;99.90;;;;;;5065908;28;20060;-83
2023/04/06 05:08:56;;;;;;;10.98;7.78;;;1.90;99.90;;;;;;5059183;28;20417;-84
2023/04/06 05:11:21;;;;;;;9.88;6.80;;;1.90;99.90;;;;;;5068375;28;20469;-83
2023/04/06 05:13:48;;;;;;;18.90;9.23;;;1.90;99.90;;;;;;5067040;28;20090;-84
2023/04/06 05:16:15;;;;;;;18.05;9.50;;;1.90;99.90;;;;;;5067790;28;20031;-83
2023/04/06 05:18:41;;;;;;;11.13;8.05;;;1.80;99.90;;;;;;5068005;28;20032;-84
2023/04/06 05:21:06;;;;;;;13.65;8.57;;;1.90;99.90;;;;;;5064500;28;20032;-84
2023/04/06 05:23:32;;;;;;;13.85;8.05;;;1.80;99.90;;;;;;5059834;28;20029;-84
2023/04/06 05:25:57;;;;;;;12.18;8.40;;;1.80;99.90;;;;;;5062908;28;20025;-83
2023/04/06 05:28:23;;;;;;;14.63;8.43;;;1.80;99.90;;;;;;5057863;28;20024;-83
2023/04/06 05:30:52;;;;;;;11.18;7.82;;;1.80;99.90;;;;;;5066493;28;20030;-84
2023/04/06 05:33:18;;;;;;;10.13;7.30;;;1.80;99.90;;;;;;5053331;28;20060;-84
2023/04/06 05:35:44;;;;;;;9.80;6.80;;;1.80;99.90;;;;;;5061853;28;20461;-83
2023/04/06 05:38:10;;;;;;;13.73;7.93;;;1.80;99.90;;;;;;5055604;28;20052;-83
2023/04/06 05:40:40;;;;;;;13.70;7.32;;;1.90;99.90;;;;;;5066735;28;20520;-83
2023/04/06 05:43:07;;;;;;;15.30;7.95;;;1.90;99.90;;;;;;5059455;28;20024;-84
2023/04/06 05:45:32;;;;;;;10.45;7.82;;;1.90;99.90;;;;;;5059196;28;20025;-84
2023/04/06 05:47:58;;;;;;;16.00;7.45;;;2.00;99.90;;;;;;5067001;28;20029;-83
2023/04/06 05:50:24;;;;;;;11.75;7.45;;;2.00;99.90;;;;;;5057612;28;20021;-84
2023/04/06 05:52:49;;;;;;;10.63;7.47;;;2.10;99.90;;;;;;5064996;28;20025;-83
2023/04/06 05:55:15;;;;;;;12.40;6.43;;;2.10;99.90;;;;;;5056399;28;20020;-84
2023/04/06 05:57:40;;;;;;;11.80;7.00;;;2.10;99.90;;;;;;5055539;28;20115;-83
2023/04/06 06:00:09;;;;;;;14.52;7.07;;;2.30;99.90;;;;;;5063964;28;20481;-84
2023/04/06 06:02:35;;;;;;;15.68;6.85;;;2.30;99.90;;;;;;5059249;28;20043;-83
2023/04/06 06:05:01;;;;;;;13.88;8.02;;;2.50;99.90;;;;;;5053716;28;20107;-84
2023/04/06 06:07:27;;;;;;;18.17;7.88;;;2.50;99.90;;;;;;5060216;28;20033;-83
2023/04/06 06:09:52;;;;;;;15.80;7.72;;;2.60;99.90;;;;;;5052594;28;20032;-84
2023/04/06 06:12:18;;;;;;;16.33;7.63;;;2.60;99.90;;;;;;5057103;28;20564;-84
2023/04/06 06:14:44;;;;;;;13.68;7.97;;;2.60;99.90;;;;;;5060229;28;20043;-84
2023/04/06 06:17:10;;;;;;;10.60;7.38;;;2.70;99.90;;;;;;5055814;28;20025;-84
2023/04/06 06:19:35;;;;;;;14.52;7.63;;;2.70;99.90;;;;;;5055674;28;20389;-83
2023/04/06 06:22:02;;;;;;;15.98;7.85;;;2.70;99.90;;;;;;5064694;28;20135;-84
2023/04/06 06:24:49;;;;;;;12.00;7.45;;;2.80;99.90;;;;;;5057504;28;20489;-84
2023/04/06 06:27:16;;;;;;;10.98;6.45;;;2.90;99.90;;;;;;5049853;28;20414;-84
2023/04/06 06:29:41;;;;;;;11.43;6.43;;;2.90;99.90;;;;;;5066905;28;20039;-83
2023/04/06 06:32:08;;;;;;;17.52;6.82;;;3.00;99.90;;;;;;5057468;28;20490;-83
2023/04/06 06:34:35;;;;;;;14.60;8.60;;;3.00;99.90;;;;;;5063048;28;20429;-83
2023/04/06 06:37:01;;;;;;;12.32;7.22;;;3.10;99.90;;;;;;5062027;28;20675;-84
2023/04/06 06:39:27;;;;;;;15.65;8.68;;;3.10;99.90;;;;;;5057239;28;20040;-83
2023/04/06 06:41:55;;;;;;;11.88;7.32;;;3.20;99.90;;;;;;5053225;28;20053;-84
2023/04/06 06:44:21;;;;;;;10.55;7.13;;;3.20;99.90;;;;;;5055290;28;20431;-84
2023/04/06 06:46:47;;;;;;;11.43;6.28;;;3.20;99.90;;;;;;5056930;28;20119;-83
2023/04/06 06:49:14;;;;;;;10.48;6.35;;;3.20;99.90;;;;;;5063615;28;20074;-83
2023/04/06 06:51:40;;;;;;;11.25;6.00;;;3.20;99.90;;;;;;5057240;28;20075;-84
2023/04/06 06:54:07;;;;;;;9.63;5.72;;;3.30;99.90;;;;;;5066505;28;20067;-84
2023/04/06 06:56:32;;;;;;;8.00;6.10;;;3.30;99.90;;;;;;5051322;28;20033;-83
2023/04/06 06:58:58;;;;;;;10.60;6.47;;;3.40;99.90;;;;;;5061008;28;20251;-83
2023/04/06 07:01:23;;;;;;;13.18;9.13;;;3.40;99.90;;;;;;5066944;28;20040;-84
2023/04/06 07:03:49;;;;;;;19.77;8.60;;;3.50;99.90;;;;;;5066384;28;20024;-83
2023/04/06 07:06:15;;;;;;;17.80;8.30;;;3.60;99.90;;;;;;5053169;28;20035;-84
2023/04/06 07:08:40;;;;;;;13.80;8.25;;;3.60;99.90;;;;;;5050893;28;20025;-84
2023/04/06 07:11:06;;;;;;;12.77;7.97;;;3.60;99.90;;;;;;5057533;28;20035;-84
2023/04/06 07:13:31;;;;;;;12.80;8.32;;;3.70;99.90;;;;;;5055889;28;20056;-84
2023/04/06 07:15:57;;;;;;;18.67;8.82;;;3.70;99.90;;;;;;5048963;28;20197;-84
2023/04/06 07:18:22;;;;;;;15.45;8.35;;;3.70;99.90;;;;;;5061467;28;20031;-83
2023/04/06 07:20:48;;;;;;;21.02;10.30;;;3.80;99.90;;;;;;5055482;28;20067;-83
2023/04/06 07:23:14;;;;;;;16.45;10.45;;;3.90;99.90;;;;;;5066082;28;20025;-83
2023/04/06 07:25:40;;;;;;;19.63;10.90;;;4.00;99.90;;;;;;5057660;28;20116;-83
2023/04/06 07:28:06;;;;;;;21.52;10.80;;;4.00;99.90;;;;;;5057236;28;20475;-83
2023/04/06 07:30:31;;;;;;;14.05;8.75;;;4.10;99.90;;;;;;5063182;28;20101;-83
2023/04/06 07:32:58;;;;;;;19.40;9.00;;;4.20;99.90;;;;;;5057911;28;20436;-83
2023/04/06 07:35:26;;;;;;;14.48;8.85;;;4.40;99.90;;;;;;5061292;28;20056;-83
2023/04/06 07:37:55;;;;;;;16.50;10.05;;;4.50;99.90;;;;;;5064779;28;20032;-83
2023/04/06 07:40:21;;;;;;;12.25;8.90;;;4.50;99.90;;;;;;5066060;28;20044;-83
2023/04/06 07:42:47;;;;;;;16.95;8.93;;;4.60;99.90;;;;;;5066205;28;20392;-83
2023/04/06 07:45:13;;;;;;;22.17;10.02;;;4.70;99.90;;;;;;5056722;28;20035;-84
2023/04/06 07:47:38;;;;;;;16.55;10.25;;;4.70;99.90;;;;;;5061991;28;20021;-83
2023/04/06 07:50:05;;;;;;;18.50;9.73;;;4.70;99.90;;;;;;5063138;28;20029;-83
2023/04/06 07:52:31;;;;;;;17.80;10.07;;;4.80;99.90;;;;;;5055211;28;20033;-83
2023/04/06 07:54:58;;;;;;;20.25;10.13;;;4.80;99.90;;;;;;5054572;28;20056;-83
2023/04/06 07:57:23;;;;;;;18.25;10.70;;;4.90;99.90;;;;;;5045968;28;20024;-82
2023/04/06 07:59:49;;;;;;;19.90;9.77;;;4.90;99.90;;;;;;5049069;28;20174;-83
2023/04/06 08:02:15;;;;;;;20.25;10.05;;;5.00;99.90;;;;;;5067066;28;20067;-83
2023/04/06 08:04:40;;;;;;;15.10;9.05;;;5.10;99.90;;;;;;5069769;28;20052;-84
2023/04/06 08:07:06;;;;;;;15.77;9.77;;;5.10;99.90;;;;;;5060458;28;20028;-84
2023/04/06 08:09:32;;;;;;;16.98;9.48;;;5.10;99.90;;;;;;5070746;28;20043;-83
2023/04/06 08:11:58;;;;;;;19.02;8.45;;;5.10;99.90;;;;;;5056087;28;20035;-84
2023/04/06 08:14:25;;;;;;;16.33;9.27;;;5.20;99.90;;;;;;5057529;28;20025;-85
2023/04/06 08:16:50;;;;;;;20.80;11.77;;;5.20;99.90;;;;;;5058795;28;20024;-83
2023/04/06 08:19:18;;;;;;;14.77;8.32;;;5.40;99.90;;;;;;5069196;28;20031;-84
2023/04/06 08:21:46;;;;;;;15.55;9.02;;;5.50;99.90;;;;;;5060016;28;20041;-83
2023/04/06 08:24:12;;;;;;;17.60;10.07;;;5.50;99.90;;;;;;5066114;28;20043;-83
2023/04/06 08:26:37;;;;;;;15.80;8.88;;;5.60;99.90;;;;;;5061359;28;20020;-85
2023/04/06 08:29:04;;;;;;;15.35;9.65;;;5.80;99.90;;;;;;5063596;28;20029;-83
2023/04/06 08:31:30;;;;;;;19.42;9.60;;;5.90;99.90;;;;;;5062078;28;20033;-82
2023/04/06 08:33:56;;;;;;;19.70;8.73;;;5.90;99.90;;;;;;5058585;28;20040;-85
2023/04/06 08:36:22;;;;;;;19.20;9.30;;;6.00;99.90;;;;;;5065353;28;20503;-85
2023/04/06 08:38:50;;;;;;;17.70;8.75;;;6.00;99.90;;;;;;5067423;28;20025;-83
2023/04/06 08:41:19;;;;;;;21.65;8.77;;;6.10;99.90;;;;;;5065685;28;20093;-84
2023/04/06 08:43:50;;;;;;;21.17;8.65;;;6.20;99.90;;;;;;5065603;28;20385;-82
2023/04/06 08:46:18;;;;;;;16.13;8.18;;;6.30;99.90;;;;;;5060826;28;20133;-83
2023/04/06 08:48:45;;;;;;;20.33;8.25;;;6.40;99.90;;;;;;5067162;28;20496;-83
2023/04/06 08:51:11;;;;;;;18.08;9.27;;;6.50;99.90;;;;;;5052369;28;20021;-82
2023/04/06 08:53:38;;;;;;;21.40;8.77;;;6.80;99.90;;;;;;5054019;28;20033;-81
2023/04/06 08:56:05;;;;;;;14.27;7.85;;;7.10;99.90;;;;;;5061754;28;20115;-83
2023/04/06 08:58:38;;;;;;;15.77;8.57;;;7.30;96.90;;;;;;5067075;28;20465;-81
2023/04/06 09:01:08;;;;;;;17.92;8.05;;;7.50;99.50;;;;;;5060787;28;20024;-80
2023/04/06 09:03:41;;;;;;;14.77;8.85;;;7.70;93.10;;;;;;5068478;28;20472;-83
2023/04/06 09:06:08;;;;;;;16.88;8.45;;;7.80;93.20;;;;;;5059079;28;20079;-81
2023/04/06 09:08:34;;;;;;;14.57;7.82;;;7.90;90.60;;;;;;5066286;28;20039;-83
2023/04/06 09:11:01;;;;;;;15.63;7.70;;;8.00;90.60;;;;;;5068135;28;20032;-82
2023/04/06 09:13:27;;;;;;;19.15;7.72;;;8.10;77.00;;;;;;5062680;28;20088;-82
2023/04/06 09:16:03;;;;;;;13.55;7.82;;;8.20;77.50;;;;;;5060714;28;20056;-83
2023/04/06 09:18:33;;;;;;;17.38;7.65;;;8.20;90.40;;;;;;5063331;28;20033;-83
2023/04/06 09:21:06;;;;;;;16.65;8.73;;;8.30;72.20;;;;;;5065883;28;20044;-83
2023/04/06 09:23:34;;;;;;;21.55;7.63;;;8.30;78.00;;;;;;5059013;28;20223;-83
2023/04/06 09:26:16;;;;;;;13.80;7.20;;;8.40;77.50;;;;;;5049040;28;20031;-84
2023/04/06 09:29:00;;;;;;;17.27;7.25;;;8.30;81.30;;;;;;5067419;28;20028;-83
2023/04/06 09:31:28;;;;;;;14.45;7.43;;;8.30;89.60;;;;;;5048182;28;20116;-80
2023/04/06 09:33:54;;;;;;;14.80;6.72;;;8.40;83.00;;;;;;5062065;28;20028;-81
2023/04/06 09:36:29;;;;;;;15.13;8.90;;;8.50;69.00;;;;;;5058637;28;20016;-81
2023/04/06 09:38:57;;;;;;;15.10;8.55;;;8.50;70.90;;;;;;5065283;28;20111;-80
2023/04/06 09:41:28;;;;;;;14.60;7.72;;;8.60;69.40;;;;;;5061970;28;20131;-81
2023/04/06 09:44:10;;;;;;;14.63;7.72;;;8.60;65.70;;;;;;5061961;28;20034;-82
2023/04/06 09:46:37;;;;;;;13.15;7.25;;;8.40;75.90;;;;;;5065968;28;20031;-84
2023/04/06 09:49:04;;;;;;;22.95;7.97;;;8.40;87.60;;;;;;5067115;28;20028;-84
2023/04/06 09:52:12;;;;;;;11.65;7.70;;;8.50;81.60;;;;;;5067352;28;20020;-82
2023/04/06 09:54:38;;;;;;;13.60;7.47;;;8.70;67.40;;;;;;5061162;28;20036;-80
2023/04/06 09:57:21;;;;;;;13.45;7.85;;;8.80;64.00;;;;;;5058905;28;20025;-80
2023/04/06 10:00:14;;;;;;;16.40;9.05;;;8.80;63.90;;;;;;5057378;28;20078;-82
2023/04/06 10:03:03;;;;;;;15.80;8.25;;;8.80;67.40;;;;;;5054709;28;20146;-81
2023/04/06 10:05:37;;;;;;;14.65;8.65;;;8.80;66.50;;;;;;5063421;28;20507;-83
2023/04/06 10:08:09;;;;;;;15.30;8.77;;;8.90;61.90;;;;;;5060835;28;20029;-81
2023/04/06 10:10:35;;;;;;;14.13;8.00;;;9.00;61.20;;;;;;5068000;28;20424;-81
2023/04/06 10:13:02;;;;;;;14.30;8.40;;;9.00;63.60;;;;;;5057565;28;20493;-81
2023/04/06 10:15:29;;;;;;;16.08;8.63;;;9.10;59.30;;;;;;5066447;28;20480;-81
2023/04/06 10:17:56;;;;;;;13.02;8.00;;;9.10;61.90;;;;;;5057366;28;20025;-82
2023/04/06 10:20:29;;;;;;;14.02;7.75;;;9.20;67.50;;;;;;5060470;28;20120;-81
2023/04/06 10:23:21;;;;;;;14.18;8.30;;;9.30;62.10;;;;;;5062356;28;20103;-83
2023/04/06 10:25:58;;;;;;;12.48;8.10;;;9.30;57.70;;;;;;5048507;28;20032;-82
2023/04/06 10:28:24;;;;;;;15.15;7.55;;;9.30;57.40;;;;;;5053105;28;20370;-82
2023/04/06 10:31:01;;;;;;;14.60;8.43;;;9.30;63.70;;;;;;5055188;28;20024;-87
2023/04/06 10:33:27;;;;;;;12.82;7.75;;;9.50;58.90;;;;;;5061915;28;20085;-82
2023/04/06 10:35:55;;;;;;;18.58;8.23;;;9.50;60.70;;;;;;5066452;28;20024;-80
2023/04/06 10:38:22;;;;;;;13.68;7.85;;;9.50;56.70;;;;;;5065894;28;20036;-83
2023/04/06 10:40:48;;;;;;;16.90;7.90;;;9.70;59.50;;;;;;5063745;28;20066;-80
2023/04/06 10:43:19;;;;;;;12.77;7.47;;;9.70;57.10;;;;;;5064264;28;20028;-82
2023/04/06 10:45:45;;;;;;;18.60;7.13;;;9.80;54.40;;;;;;5064575;28;20070;-81
2023/04/06 10:48:19;;;;;;;12.30;6.97;;;9.70;57.40;;;;;;5063713;28;20017;-82
2023/04/06 10:50:47;;;;;;;11.93;7.45;;;9.60;63.50;;;;;;5065923;28;20397;-82
2023/04/06 10:53:21;;;;;;;18.23;7.55;;;9.70;57.40;;;;;;5063994;28;20036;-83
2023/04/06 10:55:47;;;;;;;13.13;8.50;;;9.80;58.50;;;;;;5061081;28;20032;-79
2023/04/06 10:58:13;;;;;;;14.18;7.20;;;9.90;59.30;;;;;;5057951;28;20036;-83
2023/04/06 11:00:47;;;;;;;14.18;8.10;;;10.00;63.20;;;;;;5056778;28;20039;-83
2023/04/06 11:03:13;;;;;;;16.63;7.70;;;10.10;60.10;;;;;;5057866;28;20039;-82
2023/04/06 11:05:46;;;;;;;17.63;7.40;;;10.10;57.70;;;;;;5066010;28;20389;-83
2023/04/06 11:08:30;;;;;;;12.82;7.47;;;10.20;57.60;;;;;;5054684;28;20397;-82
2023/04/06 11:11:17;;;;;;;16.40;6.85;;;10.20;58.10;;;;;;5049791;28;20139;-83
2023/04/06 11:13:45;;;;;;;12.35;6.90;;;10.20;64.00;;;;;;5055005;28;20048;-81
2023/04/06 11:16:15;;;;;;;12.77;6.68;;;10.40;60.80;;;;;;5064471;28;20104;-83
2023/04/06 11:18:57;;;;;;;13.65;6.75;;;10.40;58.10;;;;;;5058222;28;20367;-82
2023/04/06 11:21:48;;;;;;;15.10;7.20;;;10.40;58.90;;;;;;5061157;28;20036;-82
2023/04/06 11:24:25;;;;;;;13.60;7.18;;;10.40;57.50;;;;;;5052043;28;20025;-83
2023/04/06 11:26:56;;;;;;;10.85;6.93;;;10.60;55.80;;;;;;5063015;28;20036;-82
2023/04/06 11:29:23;;;;;;;13.27;6.80;;;10.70;57.00;;;;;;5052401;28;20036;-80
2023/04/06 11:31:53;;;;;;;11.98;7.22;;;10.70;59.10;;;;;;5061285;28;20111;-81
2023/04/06 11:34:25;;;;;;;12.82;7.47;;;10.70;59.80;;;;;;5059455;28;20116;-82
2023/04/06 11:37:02;;;;;;;17.08;7.95;;;10.70;57.10;;;;;;5060464;28;20505;-84
2023/04/06 11:39:29;;;;;;;13.68;7.68;;;10.80;54.50;;;;;;5057068;28;20497;-83
2023/04/06 11:41:58;;;;;;;17.77;7.55;;;10.80;59.70;;;;;;5048123;28;20048;-80
2023/04/06 11:44:45;;;;;;;13.38;6.60;;;10.80;56.90;;;;;;5060653;28;20071;-81
2023/04/06 11:47:12;;;;;;;16.83;6.97;;;10.80;56.90;;;;;;5055818;28;20137;-82
2023/04/06 11:49:39;;;;;;;18.08;6.57;;;10.80;55.80;;;;;;5065588;28;20082;-82
2023/04/06 11:52:21;;;;;;;9.55;5.82;;;10.80;58.80;;;;;;5060940;28;20123;-82
2023/04/06 11:54:48;;;;;;;13.40;8.13;;;10.80;58.70;;;;;;5057090;28;20032;-81
2023/04/06 11:57:15;;;;;;;14.52;8.65;;;10.90;58.80;;;;;;5055274;28;20465;-84
2023/04/06 11:59:40;;;;;;;12.77;7.68;;;11.00;64.00;;;;;;5063434;28;20028;-81
2023/04/06 12:02:06;;;;;;;13.18;8.07;;;11.10;60.20;;;;;;5058119;28;20067;-81
2023/04/06 12:04:32;;;;;;;14.43;8.30;;;11.20;55.90;;;;;;5054385;28;20024;-81
2023/04/06 12:06:58;;;;;;;15.50;8.23;;;11.20;56.10;;;;;;5055114;28;20025;-81
2023/04/06 12:09:23;;;;;;;21.33;8.30;;;11.30;56.10;;;;;;5065498;28;20381;-79
2023/04/06 12:11:51;;;;;;;17.05;8.23;;;11.40;56.80;;;;;;5057726;28;20046;-83
2023/04/06 12:14:16;;;;;;;13.55;6.97;;;11.40;57.70;;;;;;5062261;28;20033;-81
2023/04/06 12:16:42;;;;;;;15.57;7.63;;;11.40;57.40;;;;;;5059415;28;20457;-80
2023/04/06 12:19:08;;;;;;;9.90;6.75;;;11.30;56.10;;;;;;5065510;28;20059;-82
2023/04/06 12:21:36;;;;;;;13.85;7.22;;;11.20;57.80;;;;;;5061507;28;20127;-82
2023/04/06 12:24:02;;;;;;;13.55;6.68;;;11.20;61.90;;;;;;5057807;28;20037;-82
2023/04/06 12:26:28;;;;;;;15.60;6.38;;;11.20;59.10;;;;;;5058688;28;20037;-82
2023/04/06 12:28:54;;;;;;;10.00;6.05;;;11.20;61.00;;;;;;5062650;28;20032;-80
2023/04/06 12:31:21;;;;;;;11.35;6.57;;;11.30;56.40;;;;;;5059999;28;20021;-80
2023/04/06 12:33:48;;;;;;;13.30;7.53;;;11.40;58.30;;;;;;5056114;28;20444;-80
2023/04/06 12:36:15;;;;;;;14.35;7.72;;;11.50;52.50;;;;;;5066186;28;20504;-80
2023/04/06 12:38:41;;;;;;;9.13;5.15;;;11.60;55.90;;;;;;5064352;28;20056;-81
2023/04/06 12:41:07;;;;;;;10.27;6.05;;;11.60;57.30;;;;;;5055887;28;20628;-81
2023/04/06 12:43:33;;;;;;;11.75;6.97;;;11.70;58.10;;;;;;5066249;28;20073;-82
2023/04/06 12:45:59;;;;;;;16.00;7.78;;;11.70;57.00;;;;;;5046710;28;20374;-80
2023/04/06 12:48:25;;;;;;;14.93;6.97;;;11.70;55.60;;;;;;5046683;28;20111;-79
2023/04/06 12:50:58;;;;;;;14.52;6.45;;;11.80;56.80;;;;;;5067299;28;20539;-82